Terminal Aerodrome Forecast
Issued by NWS Duluth, MN

Home | Current Version | Previous Version | Text Only | Print | Product List | Glossary On
Versions: 1 2 3 4 5 6 7 8 9 10 11 12 13 14 15 16 17 18 19 20 21 22 23 24 25 26 27
000
FTUS43 KDLH 230823 AAB
TAFINL
TAF AMD
KINL 230823Z 2308/2406 15009G17KT P6SM VCSH OVC060
     FM231200 17010G18KT P6SM BKN060
     FM232100 18008G17KT 4SM -RA BR BKN018 OVC025
     FM240000 20005KT 2SM -RA BR BKN012 OVC020=

USA.gov is the U.S. government's official web portal to all federal, state and local government web resources and services.